sensor_id;sensor_type;location;lat;lon;timestamp;temperature;humidity
11922;DHT22;6021;51.182;3.160;2023-10-09T00:01:44;15.90;99.90
11922;DHT22;6021;51.182;3.160;2023-10-09T00:04:13;15.90;99.90
11922;DHT22;6021;51.182;3.160;2023-10-09T00:06:43;16.00;99.90
11922;DHT22;6021;51.182;3.160;2023-10-09T00:09:11;16.10;99.90
11922;DHT22;6021;51.182;3.160;2023-10-09T00:11:44;16.10;99.90
11922;DHT22;6021;51.182;3.160;2023-10-09T00:14:13;16.20;93.90
11922;DHT22;6021;51.182;3.160;2023-10-09T00:16:43;16.20;95.00
11922;DHT22;6021;51.182;3.160;2023-10-09T00:19:13;16.20;93.20
11922;DHT22;6021;51.182;3.160;2023-10-09T00:21:44;16.40;85.40
11922;DHT22;6021;51.182;3.160;2023-10-09T00:24:13;16.50;63.60
11922;DHT22;6021;51.182;3.160;2023-10-09T00:26:46;16.40;64.40
11922;DHT22;6021;51.182;3.160;2023-10-09T00:29:15;16.20;69.00
11922;DHT22;6021;51.182;3.160;2023-10-09T00:31:53;16.20;78.40
11922;DHT22;6021;51.182;3.160;2023-10-09T00:34:33;16.20;75.70
11922;DHT22;6021;51.182;3.160;2023-10-09T00:37:03;16.20;77.90
11922;DHT22;6021;51.182;3.160;2023-10-09T00:39:32;16.20;74.20
11922;DHT22;6021;51.182;3.160;2023-10-09T00:42:03;16.20;77.90
11922;DHT22;6021;51.182;3.160;2023-10-09T00:44:33;16.20;73.70
11922;DHT22;6021;51.182;3.160;2023-10-09T00:47:12;16.20;83.30
11922;DHT22;6021;51.182;3.160;2023-10-09T00:49:59;16.30;87.70
11922;DHT22;6021;51.182;3.160;2023-10-09T00:52:32;16.30;87.40
11922;DHT22;6021;51.182;3.160;2023-10-09T00:55:03;16.40;71.70
11922;DHT22;6021;51.182;3.160;2023-10-09T00:57:37;16.40;76.30
11922;DHT22;6021;51.182;3.160;2023-10-09T01:00:08;16.30;76.60
11922;DHT22;6021;51.182;3.160;2023-10-09T01:02:44;16.40;92.50
11922;DHT22;6021;51.182;3.160;2023-10-09T01:05:12;16.50;73.70
11922;DHT22;6021;51.182;3.160;2023-10-09T01:07:48;16.50;75.60
11922;DHT22;6021;51.182;3.160;2023-10-09T01:10:18;16.30;87.20
11922;DHT22;6021;51.182;3.160;2023-10-09T01:12:47;16.20;97.00
11922;DHT22;6021;51.182;3.160;2023-10-09T01:15:17;16.20;99.90
11922;DHT22;6021;51.182;3.160;2023-10-09T01:17:47;16.10;99.90
11922;DHT22;6021;51.182;3.160;2023-10-09T01:20:21;16.00;99.90
11922;DHT22;6021;51.182;3.160;2023-10-09T01:22:48;16.00;99.90
11922;DHT22;6021;51.182;3.160;2023-10-09T01:25:17;16.00;99.90
11922;DHT22;6021;51.182;3.160;2023-10-09T01:27:47;16.00;99.90
11922;DHT22;6021;51.182;3.160;2023-10-09T01:30:15;16.00;99.90
11922;DHT22;6021;51.182;3.160;2023-10-09T01:32:44;16.00;99.90
11922;DHT22;6021;51.182;3.160;2023-10-09T01:35:12;16.20;99.90
11922;DHT22;6021;51.182;3.160;2023-10-09T01:37:42;16.10;99.90
11922;DHT22;6021;51.182;3.160;2023-10-09T01:40:11;16.10;99.90
11922;DHT22;6021;51.182;3.160;2023-10-09T01:42:59;16.10;99.90
11922;DHT22;6021;51.182;3.160;2023-10-09T01:45:27;16.10;99.90
11922;DHT22;6021;51.182;3.160;2023-10-09T01:47:56;16.10;99.90
11922;DHT22;6021;51.182;3.160;2023-10-09T01:50:24;16.10;99.90
11922;DHT22;6021;51.182;3.160;2023-10-09T01:52:54;16.10;99.90
11922;DHT22;6021;51.182;3.160;2023-10-09T01:55:23;16.20;99.90
11922;DHT22;6021;51.182;3.160;2023-10-09T01:57:56;16.40;99.90
11922;DHT22;6021;51.182;3.160;2023-10-09T02:00:26;16.20;99.90
11922;DHT22;6021;51.182;3.160;2023-10-09T02:02:56;16.10;99.90
11922;DHT22;6021;51.182;3.160;2023-10-09T02:05:26;16.10;99.90
11922;DHT22;6021;51.182;3.160;2023-10-09T02:07:56;16.10;99.90
11922;DHT22;6021;51.182;3.160;2023-10-09T02:10:25;16.00;99.90
11922;DHT22;6021;51.182;3.160;2023-10-09T02:13:02;16.20;99.90
11922;DHT22;6021;51.182;3.160;2023-10-09T02:15:37;16.10;99.90
11922;DHT22;6021;51.182;3.160;2023-10-09T02:18:14;16.20;99.90
11922;DHT22;6021;51.182;3.160;2023-10-09T02:23:36;16.50;99.90
11922;DHT22;6021;51.182;3.160;2023-10-09T02:26:18;16.30;99.90
11922;DHT22;6021;51.182;3.160;2023-10-09T02:28:55;16.10;99.90
11922;DHT22;6021;51.182;3.160;2023-10-09T02:31:27;16.00;99.90
11922;DHT22;6021;51.182;3.160;2023-10-09T02:33:57;16.00;99.90
11922;DHT22;6021;51.182;3.160;2023-10-09T02:36:27;15.90;99.90
11922;DHT22;6021;51.182;3.160;2023-10-09T02:38:56;15.90;99.90
11922;DHT22;6021;51.182;3.160;2023-10-09T02:41:24;15.90;99.90
11922;DHT22;6021;51.182;3.160;2023-10-09T02:43:54;16.00;99.90
11922;DHT22;6021;51.182;3.160;2023-10-09T02:46:23;15.90;99.90
11922;DHT22;6021;51.182;3.160;2023-10-09T02:48:57;15.80;99.90
11922;DHT22;6021;51.182;3.160;2023-10-09T02:51:26;15.90;99.90
11922;DHT22;6021;51.182;3.160;2023-10-09T02:54:01;15.90;99.90
11922;DHT22;6021;51.182;3.160;2023-10-09T02:56:31;15.80;99.90
11922;DHT22;6021;51.182;3.160;2023-10-09T02:59:06;15.80;99.90
11922;DHT22;6021;51.182;3.160;2023-10-09T03:01:36;15.80;99.90
11922;DHT22;6021;51.182;3.160;2023-10-09T03:04:05;15.80;99.90
11922;DHT22;6021;51.182;3.160;2023-10-09T03:06:34;15.70;99.90
11922;DHT22;6021;51.182;3.160;2023-10-09T03:09:04;15.70;99.90
11922;DHT22;6021;51.182;3.160;2023-10-09T03:11:33;15.60;99.90
11922;DHT22;6021;51.182;3.160;2023-10-09T03:14:04;15.70;99.90
11922;DHT22;6021;51.182;3.160;2023-10-09T03:16:32;15.60;99.90
11922;DHT22;6021;51.182;3.160;2023-10-09T03:19:00;15.70;99.90
11922;DHT22;6021;51.182;3.160;2023-10-09T03:21:30;16.00;99.90
11922;DHT22;6021;51.182;3.160;2023-10-09T03:23:59;15.80;99.90
11922;DHT22;6021;51.182;3.160;2023-10-09T03:26:29;15.70;99.90
11922;DHT22;6021;51.182;3.160;2023-10-09T03:28:58;15.70;99.90
11922;DHT22;6021;51.182;3.160;2023-10-09T03:31:36;16.10;99.90
11922;DHT22;6021;51.182;3.160;2023-10-09T03:34:01;15.70;99.90
11922;DHT22;6021;51.182;3.160;2023-10-09T03:36:30;15.60;99.90
11922;DHT22;6021;51.182;3.160;2023-10-09T03:39:00;15.60;99.90
11922;DHT22;6021;51.182;3.160;2023-10-09T03:41:30;15.50;99.90
11922;DHT22;6021;51.182;3.160;2023-10-09T03:43:58;15.60;99.90
11922;DHT22;6021;51.182;3.160;2023-10-09T03:46:27;15.50;99.90
11922;DHT22;6021;51.182;3.160;2023-10-09T03:48:57;15.50;99.90
11922;DHT22;6021;51.182;3.160;2023-10-09T03:51:30;15.50;99.90
11922;DHT22;6021;51.182;3.160;2023-10-09T03:53:59;15.70;99.90
11922;DHT22;6021;51.182;3.160;2023-10-09T03:56:29;15.50;99.90
11922;DHT22;6021;51.182;3.160;2023-10-09T03:59:00;15.50;99.90
11922;DHT22;6021;51.182;3.160;2023-10-09T04:01:30;15.50;99.90
11922;DHT22;6021;51.182;3.160;2023-10-09T04:04:00;15.60;99.90
11922;DHT22;6021;51.182;3.160;2023-10-09T04:06:30;15.70;99.90
11922;DHT22;6021;51.182;3.160;2023-10-09T04:09:07;15.80;99.90
11922;DHT22;6021;51.182;3.160;2023-10-09T04:11:50;15.70;99.90
11922;DHT22;6021;51.182;3.160;2023-10-09T04:14:26;15.70;99.90
11922;DHT22;6021;51.182;3.160;2023-10-09T04:17:01;15.60;99.90
11922;DHT22;6021;51.182;3.160;2023-10-09T04:19:47;15.60;99.90
11922;DHT22;6021;51.182;3.160;2023-10-09T04:22:17;15.80;99.90
11922;DHT22;6021;51.182;3.160;2023-10-09T04:24:54;15.80;99.90
11922;DHT22;6021;51.182;3.160;2023-10-09T04:27:24;15.50;99.90
11922;DHT22;6021;51.182;3.160;2023-10-09T04:29:54;15.80;99.90
11922;DHT22;6021;51.182;3.160;2023-10-09T04:32:24;15.70;99.90
11922;DHT22;6021;51.182;3.160;2023-10-09T04:34:52;16.00;99.90
11922;DHT22;6021;51.182;3.160;2023-10-09T04:37:28;15.70;99.90
11922;DHT22;6021;51.182;3.160;2023-10-09T04:40:08;15.70;99.90
11922;DHT22;6021;51.182;3.160;2023-10-09T04:42:40;15.80;99.90
11922;DHT22;6021;51.182;3.160;2023-10-09T04:45:10;15.80;99.90
11922;DHT22;6021;51.182;3.160;2023-10-09T04:47:40;16.00;99.90
11922;DHT22;6021;51.182;3.160;2023-10-09T04:50:19;15.90;99.90
11922;DHT22;6021;51.182;3.160;2023-10-09T04:52:52;15.70;99.90
11922;DHT22;6021;51.182;3.160;2023-10-09T04:55:20;15.70;99.90
11922;DHT22;6021;51.182;3.160;2023-10-09T04:57:51;15.80;99.90
11922;DHT22;6021;51.182;3.160;2023-10-09T05:00:29;15.90;99.90
11922;DHT22;6021;51.182;3.160;2023-10-09T05:03:01;15.90;99.90
11922;DHT22;6021;51.182;3.160;2023-10-09T05:05:37;16.00;99.90
11922;DHT22;6021;51.182;3.160;2023-10-09T05:08:15;16.00;99.90
11922;DHT22;6021;51.182;3.160;2023-10-09T05:10:50;15.90;99.90
11922;DHT22;6021;51.182;3.160;2023-10-09T05:13:24;15.90;99.90
11922;DHT22;6021;51.182;3.160;2023-10-09T05:15:54;15.90;99.90
11922;DHT22;6021;51.182;3.160;2023-10-09T05:18:24;15.90;99.90
11922;DHT22;6021;51.182;3.160;2023-10-09T05:20:54;15.90;99.90
11922;DHT22;6021;51.182;3.160;2023-10-09T05:23:26;15.90;99.90
11922;DHT22;6021;51.182;3.160;2023-10-09T05:25:55;15.90;99.90
11922;DHT22;6021;51.182;3.160;2023-10-09T05:28:25;15.80;99.90
11922;DHT22;6021;51.182;3.160;2023-10-09T05:30:55;15.70;99.90
11922;DHT22;6021;51.182;3.160;2023-10-09T05:33:32;15.60;99.90
11922;DHT22;6021;51.182;3.160;2023-10-09T05:36:02;15.60;99.90
11922;DHT22;6021;51.182;3.160;2023-10-09T05:38:35;15.70;99.90
11922;DHT22;6021;51.182;3.160;2023-10-09T05:41:05;15.70;99.90
11922;DHT22;6021;51.182;3.160;2023-10-09T05:43:35;15.60;99.90
11922;DHT22;6021;51.182;3.160;2023-10-09T05:46:20;15.70;99.90
11922;DHT22;6021;51.182;3.160;2023-10-09T05:48:50;15.50;99.90
11922;DHT22;6021;51.182;3.160;2023-10-09T05:51:20;15.50;99.90
11922;DHT22;6021;51.182;3.160;2023-10-09T05:54:02;15.40;99.90
11922;DHT22;6021;51.182;3.160;2023-10-09T05:56:41;15.60;99.90
11922;DHT22;6021;51.182;3.160;2023-10-09T05:59:30;15.70;99.90
11922;DHT22;6021;51.182;3.160;2023-10-09T06:02:16;15.70;99.90
11922;DHT22;6021;51.182;3.160;2023-10-09T06:04:46;15.70;99.90
11922;DHT22;6021;51.182;3.160;2023-10-09T06:07:19;15.50;99.90
11922;DHT22;6021;51.182;3.160;2023-10-09T06:09:49;15.50;99.90
11922;DHT22;6021;51.182;3.160;2023-10-09T06:12:19;15.50;99.90
11922;DHT22;6021;51.182;3.160;2023-10-09T06:15:02;15.50;99.90
11922;DHT22;6021;51.182;3.160;2023-10-09T06:17:48;15.50;99.90
11922;DHT22;6021;51.182;3.160;2023-10-09T06:20:19;15.50;99.90
11922;DHT22;6021;51.182;3.160;2023-10-09T06:23:05;15.40;99.90
11922;DHT22;6021;51.182;3.160;2023-10-09T06:25:47;15.40;99.90
11922;DHT22;6021;51.182;3.160;2023-10-09T06:28:22;15.50;99.90
11922;DHT22;6021;51.182;3.160;2023-10-09T06:30:52;15.50;99.90
11922;DHT22;6021;51.182;3.160;2023-10-09T06:33:21;15.70;99.90
11922;DHT22;6021;51.182;3.160;2023-10-09T06:35:51;15.70;99.90
11922;DHT22;6021;51.182;3.160;2023-10-09T06:38:22;15.70;99.90
11922;DHT22;6021;51.182;3.160;2023-10-09T06:40:52;15.60;99.90
11922;DHT22;6021;51.182;3.160;2023-10-09T06:43:31;15.70;99.90
11922;DHT22;6021;51.182;3.160;2023-10-09T06:46:01;15.70;99.90
11922;DHT22;6021;51.182;3.160;2023-10-09T06:48:43;15.60;99.90
11922;DHT22;6021;51.182;3.160;2023-10-09T06:51:24;15.70;99.90
11922;DHT22;6021;51.182;3.160;2023-10-09T06:53:55;15.70;99.90
11922;DHT22;6021;51.182;3.160;2023-10-09T06:56:27;15.70;99.90
11922;DHT22;6021;51.182;3.160;2023-10-09T06:59:04;15.80;99.90
11922;DHT22;6021;51.182;3.160;2023-10-09T07:01:34;16.00;99.90
11922;DHT22;6021;51.182;3.160;2023-10-09T07:04:14;16.00;99.90
11922;DHT22;6021;51.182;3.160;2023-10-09T07:07:02;16.00;99.90
11922;DHT22;6021;51.182;3.160;2023-10-09T07:09:32;16.10;99.90
11922;DHT22;6021;51.182;3.160;2023-10-09T07:12:18;16.20;99.90
11922;DHT22;6021;51.182;3.160;2023-10-09T07:14:48;16.20;99.90
11922;DHT22;6021;51.182;3.160;2023-10-09T07:17:21;16.10;99.90
11922;DHT22;6021;51.182;3.160;2023-10-09T07:20:13;16.10;99.90
11922;DHT22;6021;51.182;3.160;2023-10-09T07:22:42;16.00;99.90
11922;DHT22;6021;51.182;3.160;2023-10-09T07:25:27;16.20;99.90
11922;DHT22;6021;51.182;3.160;2023-10-09T07:27:57;16.20;99.90
11922;DHT22;6021;51.182;3.160;2023-10-09T07:30:27;16.40;99.90
11922;DHT22;6021;51.182;3.160;2023-10-09T07:33:05;16.40;99.90
11922;DHT22;6021;51.182;3.160;2023-10-09T07:35:36;16.30;99.90
11922;DHT22;6021;51.182;3.160;2023-10-09T07:38:06;16.30;99.90
11922;DHT22;6021;51.182;3.160;2023-10-09T07:40:41;16.40;99.90
11922;DHT22;6021;51.182;3.160;2023-10-09T07:43:26;16.30;99.90
11922;DHT22;6021;51.182;3.160;2023-10-09T07:45:56;16.30;99.90
11922;DHT22;6021;51.182;3.160;2023-10-09T07:48:29;16.30;99.90
11922;DHT22;6021;51.182;3.160;2023-10-09T07:50:59;16.30;99.90
11922;DHT22;6021;51.182;3.160;2023-10-09T07:53:27;16.40;99.90
11922;DHT22;6021;51.182;3.160;2023-10-09T07:55:56;16.40;99.90
11922;DHT22;6021;51.182;3.160;2023-10-09T07:58:26;16.60;99.90
11922;DHT22;6021;51.182;3.160;2023-10-09T08:00:55;16.70;99.90
11922;DHT22;6021;51.182;3.160;2023-10-09T08:03:35;16.80;99.90
11922;DHT22;6021;51.182;3.160;2023-10-09T08:06:04;16.70;99.90
11922;DHT22;6021;51.182;3.160;2023-10-09T08:08:36;16.80;99.90
11922;DHT22;6021;51.182;3.160;2023-10-09T08:11:10;16.80;99.90
11922;DHT22;6021;51.182;3.160;2023-10-09T08:13:56;16.90;99.90
11922;DHT22;6021;51.182;3.160;2023-10-09T08:16:24;17.00;99.90
11922;DHT22;6021;51.182;3.160;2023-10-09T08:18:54;17.10;99.90
11922;DHT22;6021;51.182;3.160;2023-10-09T08:21:24;17.10;99.90
11922;DHT22;6021;51.182;3.160;2023-10-09T08:24:12;17.10;99.90
11922;DHT22;6021;51.182;3.160;2023-10-09T08:26:48;17.30;99.90
11922;DHT22;6021;51.182;3.160;2023-10-09T08:29:18;17.20;99.90
11922;DHT22;6021;51.182;3.160;2023-10-09T08:31:47;17.10;99.90
11922;DHT22;6021;51.182;3.160;2023-10-09T08:34:17;17.10;99.90
11922;DHT22;6021;51.182;3.160;2023-10-09T08:36:52;17.30;99.90
11922;DHT22;6021;51.182;3.160;2023-10-09T08:39:21;17.30;99.90
11922;DHT22;6021;51.182;3.160;2023-10-09T08:41:54;17.40;99.90
11922;DHT22;6021;51.182;3.160;2023-10-09T08:44:26;17.30;99.90
11922;DHT22;6021;51.182;3.160;2023-10-09T08:46:56;17.30;99.90
11922;DHT22;6021;51.182;3.160;2023-10-09T08:49:26;17.40;99.90
11922;DHT22;6021;51.182;3.160;2023-10-09T08:51:59;17.50;99.90
11922;DHT22;6021;51.182;3.160;2023-10-09T08:54:29;17.40;99.90
11922;DHT22;6021;51.182;3.160;2023-10-09T08:56:59;17.40;99.90
11922;DHT22;6021;51.182;3.160;2023-10-09T08:59:28;17.40;99.90
11922;DHT22;6021;51.182;3.160;2023-10-09T09:01:57;17.50;99.90
11922;DHT22;6021;51.182;3.160;2023-10-09T09:04:40;17.50;99.90
11922;DHT22;6021;51.182;3.160;2023-10-09T09:07:28;17.50;99.90
11922;DHT22;6021;51.182;3.160;2023-10-09T09:09:58;17.50;99.90
11922;DHT22;6021;51.182;3.160;2023-10-09T09:12:38;17.50;99.90
11922;DHT22;6021;51.182;3.160;2023-10-09T09:15:16;17.50;99.90
11922;DHT22;6021;51.182;3.160;2023-10-09T09:17:37;17.50;99.90
11922;DHT22;6021;51.182;3.160;2023-10-09T09:20:26;17.60;99.90
11922;DHT22;6021;51.182;3.160;2023-10-09T09:23:11;17.60;99.90
11922;DHT22;6021;51.182;3.160;2023-10-09T09:25:43;17.70;99.90
11922;DHT22;6021;51.182;3.160;2023-10-09T09:28:19;17.60;99.90
11922;DHT22;6021;51.182;3.160;2023-10-09T09:30:49;17.70;99.90
11922;DHT22;6021;51.182;3.160;2023-10-09T09:33:20;17.90;99.90
11922;DHT22;6021;51.182;3.160;2023-10-09T09:36:00;17.90;99.90
11922;DHT22;6021;51.182;3.160;2023-10-09T09:38:33;17.80;99.90
11922;DHT22;6021;51.182;3.160;2023-10-09T09:41:18;17.80;99.90
11922;DHT22;6021;51.182;3.160;2023-10-09T09:43:55;17.80;99.90
11922;DHT22;6021;51.182;3.160;2023-10-09T09:46:24;17.90;99.90
11922;DHT22;6021;51.182;3.160;2023-10-09T09:48:55;17.90;99.90
11922;DHT22;6021;51.182;3.160;2023-10-09T09:51:29;18.00;99.90
11922;DHT22;6021;51.182;3.160;2023-10-09T09:53:56;17.90;99.90
11922;DHT22;6021;51.182;3.160;2023-10-09T09:56:26;18.00;99.90
11922;DHT22;6021;51.182;3.160;2023-10-09T09:59:00;18.00;99.90
11922;DHT22;6021;51.182;3.160;2023-10-09T10:01:30;18.00;99.90
11922;DHT22;6021;51.182;3.160;2023-10-09T10:06:39;18.30;99.90
11922;DHT22;6021;51.182;3.160;2023-10-09T10:09:09;18.30;99.90
11922;DHT22;6021;51.182;3.160;2023-10-09T10:11:47;18.30;99.90
11922;DHT22;6021;51.182;3.160;2023-10-09T10:14:23;18.40;99.90
11922;DHT22;6021;51.182;3.160;2023-10-09T10:17:05;18.40;99.90
11922;DHT22;6021;51.182;3.160;2023-10-09T10:20:06;18.50;99.90
11922;DHT22;6021;51.182;3.160;2023-10-09T10:22:48;18.50;99.90
11922;DHT22;6021;51.182;3.160;2023-10-09T10:25:32;18.70;99.90
11922;DHT22;6021;51.182;3.160;2023-10-09T10:28:21;18.60;99.90
11922;DHT22;6021;51.182;3.160;2023-10-09T10:30:56;18.70;99.90
11922;DHT22;6021;51.182;3.160;2023-10-09T10:33:26;18.70;99.90
11922;DHT22;6021;51.182;3.160;2023-10-09T10:35:55;18.70;99.90
11922;DHT22;6021;51.182;3.160;2023-10-09T10:38:33;18.80;99.90
11922;DHT22;6021;51.182;3.160;2023-10-09T10:41:17;18.90;99.90
11922;DHT22;6021;51.182;3.160;2023-10-09T10:43:46;18.90;99.90
11922;DHT22;6021;51.182;3.160;2023-10-09T10:46:15;18.90;99.90
11922;DHT22;6021;51.182;3.160;2023-10-09T10:49:01;19.10;99.90
11922;DHT22;6021;51.182;3.160;2023-10-09T10:51:50;19.10;99.90
11922;DHT22;6021;51.182;3.160;2023-10-09T10:54:24;19.00;99.90
11922;DHT22;6021;51.182;3.160;2023-10-09T10:57:03;19.00;99.90
11922;DHT22;6021;51.182;3.160;2023-10-09T10:59:40;19.00;99.90
11922;DHT22;6021;51.182;3.160;2023-10-09T11:02:12;19.10;99.90
11922;DHT22;6021;51.182;3.160;2023-10-09T11:04:45;19.20;95.60
11922;DHT22;6021;51.182;3.160;2023-10-09T11:07:13;19.30;81.20
11922;DHT22;6021;51.182;3.160;2023-10-09T11:12:28;19.30;40.20
11922;DHT22;6021;51.182;3.160;2023-10-09T11:14:58;19.40;51.60
11922;DHT22;6021;51.182;3.160;2023-10-09T11:17:36;19.50;21.00
11922;DHT22;6021;51.182;3.160;2023-10-09T11:20:07;19.40;21.60
11922;DHT22;6021;51.182;3.160;2023-10-09T11:22:53;19.40;23.50
11922;DHT22;6021;51.182;3.160;2023-10-09T11:25:35;19.40;29.20
11922;DHT22;6021;51.182;3.160;2023-10-09T11:28:21;19.40;33.50
11922;DHT22;6021;51.182;3.160;2023-10-09T11:31:27;19.50;42.30
11922;DHT22;6021;51.182;3.160;2023-10-09T11:33:55;19.50;53.20
11922;DHT22;6021;51.182;3.160;2023-10-09T11:36:24;19.50;43.20
11922;DHT22;6021;51.182;3.160;2023-10-09T11:39:02;19.60;49.90
11922;DHT22;6021;51.182;3.160;2023-10-09T11:41:44;19.80;46.00
11922;DHT22;6021;51.182;3.160;2023-10-09T11:44:14;19.90;12.70
11922;DHT22;6021;51.182;3.160;2023-10-09T11:47:01;19.90;1.00
11922;DHT22;6021;51.182;3.160;2023-10-09T11:49:33;20.00;1.00
11922;DHT22;6021;51.182;3.160;2023-10-09T11:52:12;19.90;5.10
11922;DHT22;6021;51.182;3.160;2023-10-09T11:54:42;20.00;1.00
11922;DHT22;6021;51.182;3.160;2023-10-09T11:57:12;20.10;1.00
11922;DHT22;6021;51.182;3.160;2023-10-09T11:59:40;20.00;11.70
11922;DHT22;6021;51.182;3.160;2023-10-09T12:02:09;20.00;1.00
11922;DHT22;6021;51.182;3.160;2023-10-09T12:04:40;19.80;1.00
11922;DHT22;6021;51.182;3.160;2023-10-09T12:07:11;19.80;1.00
11922;DHT22;6021;51.182;3.160;2023-10-09T12:09:41;19.80;1.00
11922;DHT22;6021;51.182;3.160;2023-10-09T12:12:09;19.70;1.00
11922;DHT22;6021;51.182;3.160;2023-10-09T12:14:38;19.80;1.00
11922;DHT22;6021;51.182;3.160;2023-10-09T12:17:08;19.80;1.00
11922;DHT22;6021;51.182;3.160;2023-10-09T12:19:37;19.70;1.00
11922;DHT22;6021;51.182;3.160;2023-10-09T12:22:08;19.70;3.20
11922;DHT22;6021;51.182;3.160;2023-10-09T12:24:41;19.70;1.00
11922;DHT22;6021;51.182;3.160;2023-10-09T12:27:10;19.70;1.00
11922;DHT22;6021;51.182;3.160;2023-10-09T12:29:39;19.70;1.00
11922;DHT22;6021;51.182;3.160;2023-10-09T12:32:09;19.70;1.00
11922;DHT22;6021;51.182;3.160;2023-10-09T12:34:39;19.70;1.00
11922;DHT22;6021;51.182;3.160;2023-10-09T12:37:09;19.60;1.00
11922;DHT22;6021;51.182;3.160;2023-10-09T12:39:37;19.60;1.00
11922;DHT22;6021;51.182;3.160;2023-10-09T12:42:07;19.60;1.00
11922;DHT22;6021;51.182;3.160;2023-10-09T12:44:36;19.60;5.10
11922;DHT22;6021;51.182;3.160;2023-10-09T12:47:08;19.70;1.00
11922;DHT22;6021;51.182;3.160;2023-10-09T12:49:38;19.70;6.70
11922;DHT22;6021;51.182;3.160;2023-10-09T12:52:09;19.70;6.50
11922;DHT22;6021;51.182;3.160;2023-10-09T12:54:44;19.80;1.90
11922;DHT22;6021;51.182;3.160;2023-10-09T12:57:15;19.90;1.00
11922;DHT22;6021;51.182;3.160;2023-10-09T12:59:43;19.80;1.00
11922;DHT22;6021;51.182;3.160;2023-10-09T13:02:16;19.80;1.00
11922;DHT22;6021;51.182;3.160;2023-10-09T13:04:58;19.90;1.00
11922;DHT22;6021;51.182;3.160;2023-10-09T13:07:27;19.90;1.00
11922;DHT22;6021;51.182;3.160;2023-10-09T13:09:55;19.80;1.00
11922;DHT22;6021;51.182;3.160;2023-10-09T13:12:36;19.80;1.00
11922;DHT22;6021;51.182;3.160;2023-10-09T13:15:11;19.90;1.00
11922;DHT22;6021;51.182;3.160;2023-10-09T13:17:41;20.00;1.00
11922;DHT22;6021;51.182;3.160;2023-10-09T13:20:09;19.90;1.00
11922;DHT22;6021;51.182;3.160;2023-10-09T13:22:41;19.80;1.00
11922;DHT22;6021;51.182;3.160;2023-10-09T13:25:10;19.90;1.00
11922;DHT22;6021;51.182;3.160;2023-10-09T13:27:46;20.00;1.00
11922;DHT22;6021;51.182;3.160;2023-10-09T13:30:18;19.90;1.00
11922;DHT22;6021;51.182;3.160;2023-10-09T13:32:50;19.90;1.00
11922;DHT22;6021;51.182;3.160;2023-10-09T13:35:19;20.10;1.00
11922;DHT22;6021;51.182;3.160;2023-10-09T13:37:49;20.10;1.00
11922;DHT22;6021;51.182;3.160;2023-10-09T13:40:23;20.20;1.00
11922;DHT22;6021;51.182;3.160;2023-10-09T13:43:12;20.10;1.00
11922;DHT22;6021;51.182;3.160;2023-10-09T13:45:43;20.00;1.00
11922;DHT22;6021;51.182;3.160;2023-10-09T13:48:13;19.90;1.00
11922;DHT22;6021;51.182;3.160;2023-10-09T13:50:43;20.00;1.00
11922;DHT22;6021;51.182;3.160;2023-10-09T13:53:11;20.00;1.00
11922;DHT22;6021;51.182;3.160;2023-10-09T13:55:41;19.90;1.00
11922;DHT22;6021;51.182;3.160;2023-10-09T13:58:12;19.80;1.00
11922;DHT22;6021;51.182;3.160;2023-10-09T14:00:42;19.80;1.00
11922;DHT22;6021;51.182;3.160;2023-10-09T14:03:12;19.90;1.00
11922;DHT22;6021;51.182;3.160;2023-10-09T14:05:41;19.80;1.00
11922;DHT22;6021;51.182;3.160;2023-10-09T14:08:14;19.80;1.00
11922;DHT22;6021;51.182;3.160;2023-10-09T14:10:43;19.90;1.00
11922;DHT22;6021;51.182;3.160;2023-10-09T14:13:13;19.80;1.00
11922;DHT22;6021;51.182;3.160;2023-10-09T14:15:42;19.80;1.00
11922;DHT22;6021;51.182;3.160;2023-10-09T14:18:10;19.70;1.00
11922;DHT22;6021;51.182;3.160;2023-10-09T14:20:39;19.60;1.00
11922;DHT22;6021;51.182;3.160;2023-10-09T14:23:08;19.60;1.00
11922;DHT22;6021;51.182;3.160;2023-10-09T14:25:38;19.50;1.00
11922;DHT22;6021;51.182;3.160;2023-10-09T14:28:07;19.50;1.00
11922;DHT22;6021;51.182;3.160;2023-10-09T14:30:37;19.50;1.00
11922;DHT22;6021;51.182;3.160;2023-10-09T14:33:11;19.50;1.00
11922;DHT22;6021;51.182;3.160;2023-10-09T14:35:41;19.50;1.00
11922;DHT22;6021;51.182;3.160;2023-10-09T14:38:09;19.50;1.00
11922;DHT22;6021;51.182;3.160;2023-10-09T14:40:49;19.70;1.00
11922;DHT22;6021;51.182;3.160;2023-10-09T14:43:13;19.70;1.00
11922;DHT22;6021;51.182;3.160;2023-10-09T14:45:49;19.80;1.00
11922;DHT22;6021;51.182;3.160;2023-10-09T14:48:19;19.70;1.00
11922;DHT22;6021;51.182;3.160;2023-10-09T14:50:49;19.60;1.00
11922;DHT22;6021;51.182;3.160;2023-10-09T14:53:22;19.60;1.00
11922;DHT22;6021;51.182;3.160;2023-10-09T14:55:57;19.50;1.00
11922;DHT22;6021;51.182;3.160;2023-10-09T14:58:27;19.40;1.00
11922;DHT22;6021;51.182;3.160;2023-10-09T15:00:57;19.30;1.00
11922;DHT22;6021;51.182;3.160;2023-10-09T15:03:25;19.30;1.00
11922;DHT22;6021;51.182;3.160;2023-10-09T15:05:55;19.20;1.00
11922;DHT22;6021;51.182;3.160;2023-10-09T15:08:25;19.40;1.00
11922;DHT22;6021;51.182;3.160;2023-10-09T15:10:54;19.30;1.00
11922;DHT22;6021;51.182;3.160;2023-10-09T15:13:26;19.30;1.00
11922;DHT22;6021;51.182;3.160;2023-10-09T15:15:57;19.20;1.00
11922;DHT22;6021;51.182;3.160;2023-10-09T15:18:26;19.40;1.00
11922;DHT22;6021;51.182;3.160;2023-10-09T15:20:56;19.40;1.00
11922;DHT22;6021;51.182;3.160;2023-10-09T15:23:25;19.30;1.00
11922;DHT22;6021;51.182;3.160;2023-10-09T15:25:53;19.20;1.00
11922;DHT22;6021;51.182;3.160;2023-10-09T15:28:23;19.20;1.00
11922;DHT22;6021;51.182;3.160;2023-10-09T15:30:53;19.20;1.00
11922;DHT22;6021;51.182;3.160;2023-10-09T15:33:22;19.20;1.00
11922;DHT22;6021;51.182;3.160;2023-10-09T15:35:50;19.10;1.00
11922;DHT22;6021;51.182;3.160;2023-10-09T15:38:18;19.00;1.00
11922;DHT22;6021;51.182;3.160;2023-10-09T15:40:47;19.00;1.00
11922;DHT22;6021;51.182;3.160;2023-10-09T15:43:15;19.00;1.00
11922;DHT22;6021;51.182;3.160;2023-10-09T15:45:44;18.90;1.00
11922;DHT22;6021;51.182;3.160;2023-10-09T15:48:14;18.90;1.00
11922;DHT22;6021;51.182;3.160;2023-10-09T15:50:46;18.80;1.00
11922;DHT22;6021;51.182;3.160;2023-10-09T15:53:19;18.80;1.00
11922;DHT22;6021;51.182;3.160;2023-10-09T15:55:49;18.80;1.00
11922;DHT22;6021;51.182;3.160;2023-10-09T15:58:18;18.70;1.00
11922;DHT22;6021;51.182;3.160;2023-10-09T16:00:47;18.70;1.00
11922;DHT22;6021;51.182;3.160;2023-10-09T16:03:15;18.70;1.00
11922;DHT22;6021;51.182;3.160;2023-10-09T16:05:44;18.70;1.00
11922;DHT22;6021;51.182;3.160;2023-10-09T16:08:14;18.70;1.00
11922;DHT22;6021;51.182;3.160;2023-10-09T16:10:44;18.60;1.00
11922;DHT22;6021;51.182;3.160;2023-10-09T16:13:14;18.60;1.00
11922;DHT22;6021;51.182;3.160;2023-10-09T16:15:43;18.60;1.00
11922;DHT22;6021;51.182;3.160;2023-10-09T16:18:12;18.60;1.00
11922;DHT22;6021;51.182;3.160;2023-10-09T16:20:40;18.50;1.00
11922;DHT22;6021;51.182;3.160;2023-10-09T16:23:08;18.50;1.00
11922;DHT22;6021;51.182;3.160;2023-10-09T16:25:37;18.40;1.00
11922;DHT22;6021;51.182;3.160;2023-10-09T16:28:06;18.40;1.00
11922;DHT22;6021;51.182;3.160;2023-10-09T16:30:36;18.40;1.00
11922;DHT22;6021;51.182;3.160;2023-10-09T16:33:04;18.30;1.00